UAUU

Kostanay West Airport

Kostanay, Kazakhstan
TAF UAUU 210800Z 2109/2118 01007MPS 3000 -SHRA BR SCT006 BKN010CB TEMPO 2109/2115 02012MPS 1100 SHRASN BR BKN004 BKN010CB TEMPO 2115/2118 01008MPS 2000 -SHSNRA BR
Issued Valid From Valid To
Apr-21 @ 08:00 UTC
(an hour ago)
Apr-21 @ 09:00 UTC
(30 minutes ago)
Apr-21 @ 18:00 UTC
(in 9 hours)
Apr-21 @ 09:00 to Apr-21 @ 18:00
TAF UAUU 210800Z 2109/2118 01007MPS 3000 -SHRA BR SCT006 BKN010CB
Wind Visibility Clouds Conditions
10° at 14 knots 2,993 meters
  • Scattered at 600' AGL
  • Broken at 1,000' AGL
  • Light Rain
  • Mist
Temporary Apr-21 @ 09:00 to Apr-21 @ 15:00
TEMPO 2109/2115 02012MPS 1100 SHRASN BR BKN004 BKN010CB
Wind Visibility Clouds Conditions
20° at 23 knots 1,094 meters
  • Broken at 400' AGL
  • Broken at 1,000' AGL
  • Rain
  • Snow
  • Mist
Temporary Apr-21 @ 15:00 to Apr-21 @ 18:00
TEMPO 2115/2118 01008MPS 2000 -SHSNRA BR
Wind Visibility Conditions
10° at 16 knots 1,996 meters
  • Light Snow
  • Light Rain
  • Mist
TAF UAUU 210800Z 2109/2118 01007MPS 3000 -SHRA BR SCT006 BKN010CB TEMPO 2109/2115 02012MPS 1100 SHRASN BR BKN004 BKN010CB TEMPO 2115/2118 01008MPS 2000 -SHSNRA BR
Issued Apr-21 @ 08:00 UTC
(an hour ago)
Valid From Apr-21 @ 09:00 UTC
(30 minutes ago)
Valid To Apr-21 @ 18:00 UTC
(in 9 hours)
Apr-21 @ 09:00 - Apr-21 @ 18:00
Wind Visibility
10° at 14 knots 2,993 meters
Clouds
  • Scattered at 600' AGL
  • Broken at 1,000' AGL
Conditions
  • Light Rain
  • Mist
Temporary Apr-21 @ 09:00 - Apr-21 @ 15:00
Wind Visibility
20° at 23 knots 1,094 meters
Clouds
  • Broken at 400' AGL
  • Broken at 1,000' AGL
Conditions
  • Rain
  • Snow
  • Mist
Temporary Apr-21 @ 15:00 - Apr-21 @ 18:00
Wind Visibility
10° at 16 knots 1,996 meters
Conditions
  • Light Snow
  • Light Rain
  • Mist